createdAt,value
2023-01-29T00:00:07.208Z,2.21
2023-01-29T00:03:09.320Z,2.21
2023-01-29T00:06:25.222Z,1.80
2023-01-29T00:09:35.269Z,2.22
2023-01-29T00:12:50.240Z,2.18
2023-01-29T00:15:59.245Z,2.17
2023-01-29T00:19:08.219Z,2.23
2023-01-29T00:22:30.244Z,2.24
2023-01-29T00:25:38.856Z,2.23
2023-01-29T00:28:53.279Z,2.23
2023-01-29T00:32:02.032Z,2.23
2023-01-29T00:35:10.259Z,2.22
2023-01-29T00:38:19.236Z,2.21
2023-01-29T00:41:28.244Z,2.22
2023-01-29T00:44:36.797Z,2.19
2023-01-29T00:47:51.259Z,2.16
2023-01-29T00:51:08.226Z,2.10
2023-01-29T00:54:23.227Z,2.05
2023-01-29T00:57:33.614Z,2.01
2023-01-29T01:00:42.281Z,1.97
2023-01-29T01:03:51.126Z,1.93
2023-01-29T01:07:00.222Z,1.89
2023-01-29T01:10:20.217Z,1.78
2023-01-29T01:13:29.302Z,1.75
2023-01-29T01:16:38.277Z,1.70
2023-01-29T01:19:46.868Z,1.64
2023-01-29T01:23:08.198Z,1.55
2023-01-29T01:26:17.198Z,1.50
2023-01-29T01:29:25.818Z,1.46
2023-01-29T01:32:40.249Z,1.43
2023-01-29T01:35:42.235Z,1.38
2023-01-29T01:38:57.231Z,1.35
2023-01-29T01:42:11.642Z,1.28
2023-01-29T01:45:43.231Z,1.16
2023-01-29T01:48:48.051Z,1.23
2023-01-29T01:52:03.198Z,1.19
2023-01-29T01:55:21.229Z,1.14
2023-01-29T01:58:31.989Z,1.19
2023-01-29T02:01:49.288Z,1.13
2023-01-29T02:04:51.917Z,1.12
2023-01-29T02:08:07.214Z,1.11
2023-01-29T02:11:09.587Z,1.08
2023-01-29T02:14:24.199Z,1.07
2023-01-29T02:17:35.270Z,1.03
2023-01-29T02:21:10.507Z,1.03
2023-01-29T02:24:59.188Z,0.98
2023-01-29T02:28:36.221Z,1.00
2023-01-29T02:31:50.533Z,1.00
2023-01-29T02:35:14.206Z,0.91
2023-01-29T02:38:28.625Z,0.94
2023-01-29T02:42:03.215Z,0.93
2023-01-29T02:45:42.250Z,0.91
2023-01-29T02:49:11.214Z,0.87
2023-01-29T02:52:35.207Z,0.88
2023-01-29T02:55:49.774Z,0.79
2023-01-29T03:11:08.193Z,0.71
2023-01-29T03:14:32.189Z,0.68
2023-01-29T03:17:40.366Z,0.60
2023-01-29T03:21:04.179Z,0.51
2023-01-29T03:28:11.185Z,0.37
2023-01-29T03:31:28.292Z,0.27
2023-01-29T03:34:53.266Z,0.22
2023-01-29T03:42:25.209Z,0.23
2023-01-29T03:46:15.205Z,0.35
2023-01-29T03:49:50.187Z,0.35
2023-01-29T03:53:30.183Z,0.56
2023-01-29T03:56:41.794Z,0.56
2023-01-29T04:00:22.200Z,0.75
2023-01-29T04:03:45.285Z,0.76
2023-01-29T04:06:58.519Z,0.83
2023-01-29T04:10:13.311Z,0.89
2023-01-29T04:13:24.945Z,0.93
2023-01-29T04:16:44.267Z,0.90
2023-01-29T04:20:00.207Z,1.00
2023-01-29T04:23:24.092Z,0.97
2023-01-29T04:27:00.193Z,1.00
2023-01-29T04:30:24.214Z,1.04
2023-01-29T04:33:49.494Z,1.05
2023-01-29T04:37:13.201Z,1.10
2023-01-29T04:40:44.176Z,1.12
2023-01-29T04:44:06.167Z,1.14
2023-01-29T04:47:50.502Z,1.17
2023-01-29T04:51:30.191Z,1.13
2023-01-29T04:55:16.185Z,1.14
2023-01-29T04:58:43.709Z,1.12
2023-01-29T05:01:59.254Z,1.13
2023-01-29T05:05:09.601Z,1.11
2023-01-29T05:08:33.211Z,1.12
2023-01-29T05:11:43.200Z,1.17
2023-01-29T05:14:54.399Z,1.17
2023-01-29T05:18:10.196Z,1.13
2023-01-29T05:21:19.183Z,1.10
2023-01-29T05:24:35.183Z,1.08
2023-01-29T05:27:58.182Z,1.14
2023-01-29T05:31:13.311Z,1.10
2023-01-29T05:34:22.033Z,1.15
2023-01-29T05:37:30.191Z,1.18
2023-01-29T05:40:46.219Z,1.26
2023-01-29T05:43:48.147Z,1.22
2023-01-29T05:47:03.173Z,1.32
2023-01-29T05:50:13.319Z,1.22
2023-01-29T05:53:29.738Z,1.37
2023-01-29T05:56:38.163Z,1.39
2023-01-29T05:59:53.163Z,1.41
2023-01-29T06:02:55.259Z,1.43
2023-01-29T06:06:10.155Z,1.42
2023-01-29T06:09:18.207Z,1.42
2023-01-29T06:12:27.715Z,1.47
2023-01-29T06:19:28.195Z,1.39
2023-01-29T06:22:43.176Z,1.38
2023-01-29T06:29:36.168Z,1.43
2023-01-29T06:45:22.234Z,1.47
2023-01-29T06:48:31.029Z,1.40
2023-01-29T06:51:46.167Z,1.39
2023-01-29T06:54:55.632Z,1.42
2023-01-29T07:05:47.194Z,1.26
2023-01-29T07:08:56.761Z,1.25
2023-01-29T07:12:11.165Z,1.41
2023-01-29T07:15:27.149Z,1.41
2023-01-29T07:18:35.802Z,1.44
2023-01-29T07:21:50.168Z,1.44
2023-01-29T07:24:52.179Z,1.43
2023-01-29T07:28:08.190Z,1.42
2023-01-29T07:31:30.339Z,1.46
2023-01-29T07:34:45.153Z,1.44
2023-01-29T07:37:53.873Z,1.46
2023-01-29T07:41:03.223Z,1.35
2023-01-29T07:44:18.158Z,1.36
2023-01-29T07:51:49.163Z,1.38
2023-01-29T07:55:04.173Z,1.46
2023-01-29T07:58:13.043Z,1.48
2023-01-29T08:01:22.176Z,1.60
2023-01-29T08:04:37.167Z,1.56
2023-01-29T08:07:51.485Z,1.55
2023-01-29T08:11:12.184Z,1.55
2023-01-29T08:14:20.717Z,1.68
2023-01-29T08:17:29.193Z,1.71
2023-01-29T08:20:45.162Z,1.68
2023-01-29T08:23:47.168Z,1.63
2023-01-29T08:27:02.176Z,1.62
2023-01-29T08:30:05.939Z,1.56
2023-01-29T08:33:39.954Z,1.55
2023-01-29T08:36:55.164Z,1.57
2023-01-29T08:40:04.206Z,1.56
2023-01-29T08:43:20.163Z,1.59
2023-01-29T08:46:28.170Z,1.59
2023-01-29T08:49:36.772Z,1.61
2023-01-29T08:52:52.156Z,1.56
2023-01-29T08:55:54.568Z,1.60
2023-01-29T08:59:09.183Z,1.51
2023-01-29T09:02:24.162Z,1.50
2023-01-29T09:05:26.116Z,1.48
2023-01-29T09:08:41.136Z,1.41
2023-01-29T09:11:43.007Z,1.30
2023-01-29T09:14:58.151Z,1.26
2023-01-29T09:18:10.189Z,1.34
2023-01-29T09:21:19.124Z,1.22
2023-01-29T09:24:28.166Z,1.35
2023-01-29T09:27:37.363Z,1.40
2023-01-29T09:30:53.246Z,1.41
2023-01-29T09:34:08.434Z,1.43
2023-01-29T09:37:23.162Z,1.50
2023-01-29T09:40:54.153Z,1.52
2023-01-29T09:44:17.151Z,1.46
2023-01-29T09:47:21.302Z,1.56
2023-01-29T09:50:46.136Z,1.62
2023-01-29T09:54:28.145Z,1.61
2023-01-29T09:58:15.160Z,1.66
2023-01-29T10:01:59.466Z,1.69
2023-01-29T10:05:24.062Z,1.63
2023-01-29T10:09:06.143Z,1.72
2023-01-29T10:12:59.209Z,1.79
2023-01-29T10:16:29.125Z,1.86
2023-01-29T10:19:52.164Z,1.76
2023-01-29T10:23:30.629Z,1.75
2023-01-29T10:26:40.190Z,1.71
2023-01-29T10:29:53.352Z,1.68
2023-01-29T10:33:24.122Z,1.82
2023-01-29T10:36:36.285Z,1.81
2023-01-29T10:39:52.128Z,1.77
2023-01-29T10:43:06.125Z,1.87
2023-01-29T10:46:27.176Z,1.76
2023-01-29T10:50:06.138Z,1.66
2023-01-29T10:53:36.145Z,1.71
2023-01-29T10:57:03.128Z,1.68
2023-01-29T11:15:50.135Z,1.63
2023-01-29T11:23:01.121Z,1.44
2023-01-29T11:30:07.199Z,1.38
2023-01-29T11:37:45.175Z,1.63
2023-01-29T11:41:21.115Z,1.66
2023-01-29T11:44:31.489Z,1.71
2023-01-29T11:48:18.130Z,1.68
2023-01-29T11:52:06.249Z,1.59
2023-01-29T11:55:40.962Z,1.66
2023-01-29T12:03:28.129Z,1.68
2023-01-29T12:06:48.166Z,1.63
2023-01-29T12:09:59.031Z,1.77
2023-01-29T12:13:12.149Z,1.76
2023-01-29T12:16:50.256Z,1.75
2023-01-29T12:20:19.392Z,1.77
2023-01-29T12:23:39.190Z,1.74
2023-01-29T12:27:01.134Z,1.62
2023-01-29T12:30:34.391Z,1.74
2023-01-29T12:34:10.515Z,1.87
2023-01-29T12:37:51.172Z,1.95
2023-01-29T12:41:11.120Z,1.98
2023-01-29T12:44:33.545Z,1.95
2023-01-29T12:47:54.128Z,1.90
2023-01-29T12:51:18.794Z,1.96
2023-01-29T12:54:40.119Z,1.82
2023-01-29T12:58:04.433Z,1.83
2023-01-29T13:01:31.125Z,1.87
2023-01-29T13:04:55.109Z,2.01
2023-01-29T13:12:23.129Z,1.80
2023-01-29T13:15:46.207Z,1.90
2023-01-29T13:19:06.139Z,1.92
2023-01-29T13:22:31.121Z,2.04
2023-01-29T13:25:47.119Z,2.07
2023-01-29T13:32:48.446Z,2.05
2023-01-29T13:40:09.130Z,2.22
2023-01-29T13:43:28.441Z,2.37
2023-01-29T13:46:41.884Z,2.46
2023-01-29T13:50:14.124Z,2.27
2023-01-29T13:53:34.205Z,2.26
2023-01-29T13:57:07.574Z,2.37
2023-01-29T14:00:28.432Z,2.31
2023-01-29T14:04:03.674Z,2.25
2023-01-29T14:07:51.093Z,1.95
2023-01-29T14:11:15.753Z,1.81
2023-01-29T14:14:55.117Z,1.78
2023-01-29T14:18:13.161Z,1.82
2023-01-29T14:21:29.726Z,1.74
2023-01-29T14:28:37.126Z,1.61
2023-01-29T14:32:07.445Z,1.48
2023-01-29T14:35:34.108Z,1.28
2023-01-29T14:38:51.829Z,1.13
2023-01-29T14:42:03.122Z,0.90
2023-01-29T14:45:35.168Z,0.77
2023-01-29T14:48:48.832Z,0.61
2023-01-29T14:51:58.393Z,0.59
2023-01-29T14:55:36.583Z,0.50
2023-01-29T14:58:49.210Z,0.35
2023-01-29T15:02:01.111Z,0.36
2023-01-29T15:05:36.381Z,0.33
2023-01-29T15:09:06.129Z,0.34
2023-01-29T15:12:33.167Z,0.32
2023-01-29T15:16:09.157Z,0.35
2023-01-29T15:19:28.876Z,0.23
2023-01-29T15:22:51.115Z,0.25
2023-01-29T15:26:06.355Z,0.21
2023-01-29T15:29:31.077Z,0.16
2023-01-29T15:32:48.051Z,0.15
2023-01-29T15:36:11.479Z,0.12
2023-01-29T15:39:23.288Z,0.05
2023-01-29T15:42:53.118Z,0.10
2023-01-29T15:46:17.385Z,0.04
2023-01-29T15:49:46.469Z,0.03
2023-01-29T15:52:58.322Z,-0.06
2023-01-29T15:56:08.102Z,-0.03
2023-01-29T15:59:29.084Z,-0.03
2023-01-29T16:06:47.111Z,-0.09
2023-01-29T16:10:06.181Z,-0.08
2023-01-29T16:13:48.172Z,-0.32
2023-01-29T16:17:04.562Z,-0.22
2023-01-29T16:20:38.511Z,-0.16
2023-01-29T16:23:43.693Z,-0.23
2023-01-29T16:39:12.344Z,-0.29
2023-01-29T16:42:32.415Z,-0.30
2023-01-29T16:45:41.929Z,-0.30
2023-01-29T16:48:58.531Z,-0.33
2023-01-29T16:52:41.498Z,-0.33
2023-01-29T16:55:59.094Z,-0.41
2023-01-29T16:59:30.185Z,-0.43
2023-01-29T17:02:46.094Z,-0.46
2023-01-29T17:05:49.875Z,-0.40
2023-01-29T17:09:08.467Z,-0.40
2023-01-29T17:12:26.461Z,-0.40
2023-01-29T17:15:43.621Z,-0.42
2023-01-29T17:18:53.081Z,-0.48
2023-01-29T17:22:09.085Z,-0.44
2023-01-29T17:29:10.505Z,-0.53
2023-01-29T17:32:20.009Z,-0.46
2023-01-29T17:35:42.541Z,-0.50
2023-01-29T17:38:51.806Z,-0.48
2023-01-29T17:42:03.551Z,-0.48
2023-01-29T17:45:14.044Z,-0.56
2023-01-29T17:48:33.556Z,-0.55
2023-01-29T17:51:51.927Z,-0.61
2023-01-29T17:55:01.418Z,-0.62
2023-01-29T17:58:18.247Z,-0.62
2023-01-29T18:01:34.616Z,-0.64
2023-01-29T18:04:44.103Z,-0.72
2023-01-29T18:07:54.530Z,-0.78
2023-01-29T18:11:04.276Z,-0.80
2023-01-29T18:14:15.730Z,-0.81
2023-01-29T18:17:32.632Z,-0.80
2023-01-29T18:20:45.096Z,-0.80
2023-01-29T18:23:54.496Z,-0.79
2023-01-29T18:27:12.485Z,-0.79
2023-01-29T18:30:22.621Z,-0.83
2023-01-29T18:33:44.418Z,-0.92
2023-01-29T18:37:01.076Z,-0.92
2023-01-29T18:40:11.401Z,-0.91
2023-01-29T18:43:20.979Z,-1.05
2023-01-29T18:46:37.459Z,-0.94
2023-01-29T18:49:48.084Z,-1.02
2023-01-29T18:52:58.016Z,-0.99
2023-01-29T18:56:15.067Z,-1.01
2023-01-29T18:59:32.449Z,-1.02
2023-01-29T19:02:43.044Z,-1.03
2023-01-29T19:05:59.541Z,-1.12
2023-01-29T19:09:09.505Z,-1.07
2023-01-29T19:12:28.644Z,-1.05
2023-01-29T19:15:48.070Z,-1.14
2023-01-29T19:18:57.619Z,-1.09
2023-01-29T19:22:13.533Z,-1.22
2023-01-29T19:25:24.541Z,-1.24
2023-01-29T19:28:34.123Z,-1.22
2023-01-29T19:31:51.050Z,-1.16
2023-01-29T19:35:08.808Z,-1.19
2023-01-29T19:38:21.700Z,-1.27
2023-01-29T19:41:38.524Z,-1.36
2023-01-29T19:44:42.418Z,-1.27
2023-01-29T19:47:59.115Z,-1.26
2023-01-29T19:51:13.526Z,-1.23
2023-01-29T19:54:23.795Z,-1.24
2023-01-29T19:57:42.057Z,-1.28
2023-01-29T20:00:44.832Z,-1.30
2023-01-29T20:04:04.271Z,-1.27
2023-01-29T20:07:14.039Z,-1.31
2023-01-29T20:14:22.041Z,-1.32
2023-01-29T20:17:32.068Z,-1.37
2023-01-29T20:20:41.518Z,-1.38
2023-01-29T20:23:59.494Z,-1.41
2023-01-29T20:27:02.355Z,-1.44
2023-01-29T20:30:19.748Z,-1.40
2023-01-29T20:33:29.537Z,-1.33
2023-01-29T20:36:44.658Z,-1.36
2023-01-29T20:40:01.442Z,-1.33
2023-01-29T20:54:07.550Z,-1.27
2023-01-29T21:13:02.419Z,-1.32
2023-01-29T21:16:18.449Z,-1.37
2023-01-29T21:19:28.092Z,-1.41
2023-01-29T21:22:37.935Z,-1.44
2023-01-29T21:25:54.323Z,-1.46
2023-01-29T21:29:03.601Z,-1.44
2023-01-29T21:32:18.389Z,-1.50
2023-01-29T21:35:40.132Z,-1.48
2023-01-29T21:38:49.152Z,-1.46
2023-01-29T21:42:04.369Z,-1.49
2023-01-29T21:45:07.537Z,-1.53
2023-01-29T21:48:22.024Z,-1.53
2023-01-29T21:51:38.020Z,-1.65
2023-01-29T21:54:47.138Z,-1.69
2023-01-29T21:58:02.026Z,-1.69
2023-01-29T22:01:35.162Z,-1.61
2023-01-29T22:04:39.101Z,-1.59
2023-01-29T22:11:58.072Z,-1.62
2023-01-29T22:15:14.030Z,-1.63
2023-01-29T22:18:22.849Z,-1.56
2023-01-29T22:21:30.989Z,-1.58
2023-01-29T22:24:39.582Z,-1.62
2023-01-29T22:27:54.011Z,-1.57
2023-01-29T22:31:11.012Z,-1.60
2023-01-29T22:34:32.992Z,-1.52
2023-01-29T22:37:48.057Z,-1.48
2023-01-29T22:41:04.000Z,-1.44
2023-01-29T22:44:13.020Z,-1.41
2023-01-29T22:47:28.028Z,-1.41
2023-01-29T22:50:44.043Z,-1.41
2023-01-29T22:54:02.025Z,-1.38
2023-01-29T22:57:13.172Z,-1.38
2023-01-29T23:00:28.036Z,-1.41
2023-01-29T23:03:30.924Z,-1.45
2023-01-29T23:06:45.984Z,-1.44
2023-01-29T23:09:55.229Z,-1.46
2023-01-29T23:13:04.032Z,-1.46
2023-01-29T23:16:21.054Z,-1.44
2023-01-29T23:19:23.135Z,-1.45
2023-01-29T23:22:38.057Z,-1.40
2023-01-29T23:25:39.980Z,-1.37
2023-01-29T23:28:55.019Z,-1.38
2023-01-29T23:32:03.812Z,-1.39
2023-01-29T23:35:19.037Z,-1.39
2023-01-29T23:38:34.024Z,-1.38
2023-01-29T23:41:36.197Z,-1.47
2023-01-29T23:44:51.041Z,-1.55
2023-01-29T23:47:59.651Z,-1.58
2023-01-29T23:51:13.996Z,-1.65
2023-01-29T23:54:16.571Z,-1.72
2023-01-29T23:57:30.994Z,-1.76
